Time;durP1;ratioP1;P1;durP2;ratioP2;P2;SDS_P1;SDS_P2;PMS_P1;PMS_P2;Temp;Humidity;BMP_temperature;BMP_pressure;BME280_temperature;BME280_humidity;BME280_pressure;Samples;Min_cycle;Max_cycle;Signal;HPM_P1;HPM_P2
2023/01/25 00:00:39;;;;;;;189.75;121.78;;;4.00;1.00;;;;;;4970115;28;20039;-75
2023/01/25 00:03:07;;;;;;;188.82;119.63;;;4.00;1.00;;;;;;4971818;28;20043;-76
2023/01/25 00:05:34;;;;;;;183.35;118.90;;;3.90;1.00;;;;;;4971194;28;20049;-77
2023/01/25 00:08:02;;;;;;;183.35;114.80;;;3.80;1.00;;;;;;4972360;28;20074;-76
2023/01/25 00:10:30;;;;;;;175.95;113.13;;;3.70;1.00;;;;;;4970711;28;20041;-76
2023/01/25 00:12:58;;;;;;;172.23;109.55;;;3.70;1.00;;;;;;4971079;28;20142;-77
2023/01/25 00:15:25;;;;;;;189.55;116.10;;;3.70;99.90;;;;;;4971360;28;20047;-77
2023/01/25 00:17:53;;;;;;;173.63;110.95;;;3.70;1.00;;;;;;4975010;28;20050;-76
2023/01/25 00:20:22;;;;;;;181.85;114.85;;;3.60;1.00;;;;;;4975041;28;20042;-77
2023/01/25 00:22:49;;;;;;;180.65;108.20;;;3.60;99.90;;;;;;4972464;28;20047;-77
2023/01/25 00:25:17;;;;;;;173.38;101.25;;;3.60;1.00;;;;;;4972598;28;20043;-76
2023/01/25 00:27:46;;;;;;;169.65;100.53;;;3.60;31.60;;;;;;4976409;28;20045;-76
2023/01/25 00:30:16;;;;;;;174.48;101.15;;;3.60;99.90;;;;;;4952022;28;20074;-75
2023/01/25 00:32:57;;;;;;;177.00;101.80;;;3.70;99.90;;;;;;4976948;28;20054;-77
2023/01/25 00:35:31;;;;;;;165.57;92.00;;;3.70;63.10;;;;;;4952171;28;20054;-77
2023/01/25 00:38:02;;;;;;;152.38;88.68;;;3.70;1.00;;;;;;4974158;28;20078;-77
2023/01/25 00:40:30;;;;;;;157.23;89.22;;;3.60;1.00;;;;;;4969709;28;20047;-76
2023/01/25 00:43:00;;;;;;;151.25;88.20;;;3.60;1.00;;;;;;4970323;28;20042;-78
2023/01/25 00:45:28;;;;;;;143.63;86.30;;;3.70;22.10;;;;;;4952705;28;20085;-76
2023/01/25 00:47:56;;;;;;;149.73;87.15;;;3.70;50.00;;;;;;4952945;28;20489;-76
2023/01/25 00:50:23;;;;;;;120.40;71.13;;;3.70;1.00;;;;;;4969829;28;20050;-75
2023/01/25 00:52:51;;;;;;;119.93;70.95;;;3.80;1.00;;;;;;4969333;28;20047;-76
2023/01/25 00:55:18;;;;;;;117.10;70.55;;;3.70;1.00;;;;;;4970969;28;20081;-75
2023/01/25 00:57:49;;;;;;;124.53;73.97;;;3.80;1.00;;;;;;4953714;28;20047;-75
2023/01/25 01:00:18;;;;;;;142.35;85.10;;;3.80;1.00;;;;;;4953436;28;20045;-77
2023/01/25 01:02:47;;;;;;;156.75;92.13;;;3.90;1.00;;;;;;4954355;28;20043;-76
2023/01/25 01:05:15;;;;;;;140.30;83.78;;;3.80;99.90;;;;;;4969991;28;20450;-77
2023/01/25 01:07:43;;;;;;;118.82;69.65;;;3.90;99.90;;;;;;4971306;28;20133;-74
2023/01/25 01:10:12;;;;;;;73.80;46.20;;;3.80;99.90;;;;;;4952834;28;20039;-77
2023/01/25 01:12:40;;;;;;;69.45;42.80;;;3.90;1.00;;;;;;4953496;28;20045;-76
2023/01/25 01:15:09;;;;;;;62.90;41.08;;;3.90;1.00;;;;;;4953286;28;20494;-77
2023/01/25 01:17:38;;;;;;;63.47;40.78;;;3.90;99.90;;;;;;4961844;28;20074;-75
2023/01/25 01:20:06;;;;;;;69.07;43.55;;;3.90;99.90;;;;;;4943258;28;20498;-75
2023/01/25 01:22:33;;;;;;;65.40;39.88;;;3.80;1.00;;;;;;4969104;28;20077;-76
2023/01/25 01:25:01;;;;;;;113.78;68.95;;;3.80;99.90;;;;;;4970379;28;20035;-75
2023/01/25 01:27:28;;;;;;;115.88;70.05;;;3.70;1.00;;;;;;4972723;28;20051;-75
2023/01/25 01:29:56;;;;;;;136.82;80.60;;;3.70;99.90;;;;;;4973227;28;20611;-75
2023/01/25 01:32:23;;;;;;;138.13;81.97;;;3.70;99.90;;;;;;4956145;28;20443;-77
2023/01/25 01:34:53;;;;;;;150.40;87.75;;;3.60;99.90;;;;;;4956789;28;20089;-75
2023/01/25 01:37:21;;;;;;;110.75;68.97;;;3.60;1.00;;;;;;4973190;28;20427;-77
2023/01/25 01:39:48;;;;;;;93.35;58.45;;;3.60;99.90;;;;;;4973817;28;20039;-77
2023/01/25 01:42:15;;;;;;;97.07;60.63;;;3.60;99.90;;;;;;4973939;28;20402;-77
2023/01/25 01:44:48;;;;;;;96.18;60.60;;;3.60;36.30;;;;;;4973871;28;20439;-76
2023/01/25 01:47:20;;;;;;;94.18;58.25;;;3.60;99.90;;;;;;4955411;28;20052;-78
2023/01/25 01:49:57;;;;;;;104.57;64.18;;;3.60;1.00;;;;;;4963691;28;20138;-77
2023/01/25 01:52:30;;;;;;;76.97;49.13;;;3.60;1.00;;;;;;4947761;28;20140;-75
2023/01/25 01:55:01;;;;;;;62.92;39.83;;;3.60;1.00;;;;;;4963988;28;20051;-76
2023/01/25 01:57:34;;;;;;;60.53;39.63;;;3.60;1.00;;;;;;4973901;28;20097;-75
2023/01/25 02:00:08;;;;;;;68.13;44.33;;;3.60;99.90;;;;;;4957065;28;20142;-77
2023/01/25 02:02:43;;;;;;;68.95;43.97;;;3.60;1.00;;;;;;4957423;28;20076;-78
2023/01/25 02:05:19;;;;;;;75.57;50.17;;;3.60;99.90;;;;;;4956242;28;20051;-75
2023/01/25 02:07:48;;;;;;;;;;;3.60;99.90;;;;;;4950143;28;20161;-77
2023/01/25 02:10:16;;;;;;;76.18;52.65;;;3.50;1.00;;;;;;4971502;28;19969;-76
2023/01/25 02:12:46;;;;;;;80.97;55.30;;;3.50;1.00;;;;;;4956374;28;20395;-74
2023/01/25 02:15:13;;;;;;;67.90;45.25;;;3.50;99.90;;;;;;4956148;28;20094;-77
2023/01/25 02:17:42;;;;;;;69.97;49.30;;;3.60;1.00;;;;;;4956221;28;20402;-76
2023/01/25 02:20:21;;;;;;;62.65;44.28;;;3.60;1.00;;;;;;4962743;28;20070;-75
2023/01/25 02:22:56;;;;;;;48.22;35.10;;;3.70;1.00;;;;;;4963383;28;20484;-78
2023/01/25 02:25:26;;;;;;;43.17;31.90;;;3.70;1.00;;;;;;4972744;28;20050;-79
2023/01/25 02:27:57;;;;;;;43.05;30.35;;;3.80;1.00;;;;;;4973568;28;20070;-76
2023/01/25 02:30:28;;;;;;;60.85;43.28;;;3.80;1.00;;;;;;4962827;28;20042;-76
2023/01/25 02:32:55;;;;;;;90.93;61.00;;;3.80;99.90;;;;;;4958850;28;20454;-76
2023/01/25 02:35:36;;;;;;;103.20;65.00;;;3.80;1.00;;;;;;4955693;28;20085;-75
2023/01/25 02:38:06;;;;;;;131.60;82.43;;;3.80;99.90;;;;;;4959466;23;20048;-75
2023/01/25 02:40:41;;;;;;;133.38;83.55;;;3.70;1.00;;;;;;4933331;29;20040;-76
2023/01/25 02:43:08;;;;;;;136.00;84.82;;;3.70;1.00;;;;;;4949863;29;20043;-76
2023/01/25 02:45:36;;;;;;;125.85;75.28;;;3.60;99.90;;;;;;4933916;29;20138;-77
2023/01/25 02:48:03;;;;;;;131.70;76.97;;;3.60;99.90;;;;;;4925726;29;20082;-77
2023/01/25 02:50:31;;;;;;;108.22;61.92;;;3.60;1.00;;;;;;4925898;29;20052;-75
2023/01/25 02:52:58;;;;;;;110.10;67.22;;;3.60;1.00;;;;;;4926542;29;20054;-77
2023/01/25 02:55:26;;;;;;;94.32;55.47;;;3.60;1.00;;;;;;4927390;29;20119;-76
2023/01/25 02:57:55;;;;;;;104.03;59.60;;;3.60;1.00;;;;;;4929560;29;20518;-76
2023/01/25 03:00:23;;;;;;;118.97;66.65;;;3.50;1.00;;;;;;4924827;29;20078;-78
2023/01/25 03:02:50;;;;;;;108.88;61.95;;;3.50;1.00;;;;;;4940198;29;20135;-76
2023/01/25 03:05:18;;;;;;;117.45;67.60;;;3.50;1.00;;;;;;4924882;29;20036;-75
2023/01/25 03:07:45;;;;;;;118.30;69.38;;;3.50;99.90;;;;;;4942193;28;20058;-77
2023/01/25 03:10:13;;;;;;;112.38;66.63;;;3.60;1.00;;;;;;4925510;29;20187;-77
2023/01/25 03:12:41;;;;;;;112.28;65.85;;;3.50;1.00;;;;;;4932442;29;20062;-76
2023/01/25 03:15:11;;;;;;;109.47;64.15;;;3.40;99.90;;;;;;4926024;29;20135;-75
2023/01/25 03:17:39;;;;;;;107.68;61.95;;;3.40;1.00;;;;;;4938520;29;20048;-76
2023/01/25 03:20:09;;;;;;;99.15;56.92;;;3.40;1.00;;;;;;4939087;29;20492;-77
2023/01/25 03:22:38;;;;;;;79.68;50.42;;;3.50;1.00;;;;;;4939534;29;20489;-76
2023/01/25 03:25:07;;;;;;;66.57;42.97;;;3.50;1.00;;;;;;4939421;29;20055;-76
2023/01/25 03:27:35;;;;;;;67.57;41.85;;;3.60;1.00;;;;;;4922374;29;20040;-76
2023/01/25 03:30:10;;;;;;;64.40;40.33;;;3.60;1.00;;;;;;4943387;29;20052;-75
2023/01/25 03:32:38;;;;;;;65.07;40.55;;;3.60;1.00;;;;;;4942332;29;20079;-76
2023/01/25 03:35:09;;;;;;;60.75;40.10;;;3.60;1.00;;;;;;4940252;28;20102;-76
2023/01/25 03:37:37;;;;;;;64.53;40.10;;;3.60;1.00;;;;;;4940450;28;20062;-76
2023/01/25 03:40:07;;;;;;;70.20;44.25;;;3.70;1.00;;;;;;4923218;29;20052;-75
2023/01/25 03:42:34;;;;;;;72.57;43.75;;;3.70;1.00;;;;;;4940554;29;20048;-76
2023/01/25 03:45:04;;;;;;;66.10;41.53;;;3.70;1.00;;;;;;4940212;29;20058;-76
2023/01/25 03:47:33;;;;;;;70.47;43.88;;;3.60;1.00;;;;;;4924522;29;20047;-77
2023/01/25 03:50:00;;;;;;;69.78;43.40;;;3.50;1.00;;;;;;4939222;28;20047;-76
2023/01/25 03:52:33;;;;;;;69.00;44.28;;;3.50;99.90;;;;;;4939581;29;20051;-75
2023/01/25 03:55:00;;;;;;;76.75;47.10;;;3.40;99.90;;;;;;4923867;29;20050;-77
2023/01/25 03:57:29;;;;;;;70.50;44.80;;;3.40;99.90;;;;;;4940090;29;20064;-74
2023/01/25 04:00:01;;;;;;;76.10;48.13;;;3.40;99.90;;;;;;4924897;29;20044;-76
2023/01/25 04:02:33;;;;;;;66.28;45.13;;;3.50;99.90;;;;;;4941190;28;20056;-75
2023/01/25 04:05:02;;;;;;;66.88;46.30;;;3.50;99.90;;;;;;4941255;29;20139;-76
2023/01/25 04:07:30;;;;;;;66.72;46.42;;;3.50;99.90;;;;;;4937412;29;20052;-74
2023/01/25 04:09:59;;;;;;;71.60;49.20;;;3.50;99.90;;;;;;4937376;28;20052;-77
2023/01/25 04:12:27;;;;;;;70.22;47.28;;;3.50;99.90;;;;;;4922400;29;20625;-77
2023/01/25 04:14:54;;;;;;;64.22;44.80;;;3.50;99.90;;;;;;4925683;29;20492;-76
2023/01/25 04:17:23;;;;;;;64.68;43.80;;;3.50;99.90;;;;;;4925206;29;20079;-77
2023/01/25 04:20:00;;;;;;;;;;;3.50;99.90;;;;;;4940884;29;20504;-76
2023/01/25 04:22:35;;;;;;;71.70;46.90;;;3.50;99.90;;;;;;4922262;29;19933;-76
2023/01/25 04:25:05;;;;;;;56.53;41.88;;;3.60;99.90;;;;;;4923426;29;20139;-76
2023/01/25 04:27:33;;;;;;;61.35;43.88;;;3.50;99.90;;;;;;4938591;28;20067;-75
2023/01/25 04:30:07;;;;;;;61.85;42.90;;;3.50;99.90;;;;;;4937552;29;20047;-76
2023/01/25 04:32:37;;;;;;;68.32;45.22;;;3.40;99.90;;;;;;4938406;29;20068;-76
2023/01/25 04:35:16;;;;;;;74.93;49.83;;;3.40;99.90;;;;;;4922701;29;20074;-77
2023/01/25 04:37:44;;;;;;;75.50;51.13;;;3.40;99.90;;;;;;4938682;29;20064;-77
2023/01/25 04:40:13;;;;;;;70.88;47.53;;;3.40;99.90;;;;;;4922630;29;20488;-77
2023/01/25 04:42:44;;;;;;;74.47;46.00;;;3.40;99.90;;;;;;4936476;29;20180;-77
2023/01/25 04:45:12;;;;;;;71.32;45.30;;;3.40;99.90;;;;;;4923824;29;20054;-78
2023/01/25 04:47:40;;;;;;;72.25;43.88;;;3.40;99.90;;;;;;4935764;29;20040;-77
2023/01/25 04:50:09;;;;;;;85.07;52.38;;;3.40;99.90;;;;;;4937038;29;20053;-78
2023/01/25 04:52:38;;;;;;;77.38;48.50;;;3.40;99.90;;;;;;4924977;29;20048;-76
2023/01/25 04:55:06;;;;;;;74.47;46.20;;;3.40;99.90;;;;;;4938378;29;20049;-75
2023/01/25 04:57:39;;;;;;;83.47;50.17;;;3.30;99.90;;;;;;4937977;29;20058;-76
2023/01/25 05:00:08;;;;;;;73.05;46.03;;;3.30;99.90;;;;;;4943534;29;20058;-76
2023/01/25 05:02:39;;;;;;;74.57;46.13;;;3.30;99.90;;;;;;4923160;29;20047;-76
2023/01/25 05:05:08;;;;;;;63.80;39.80;;;3.30;99.90;;;;;;4922013;29;20095;-76
2023/01/25 05:07:37;;;;;;;59.78;38.75;;;3.30;99.90;;;;;;4936371;29;20056;-76
2023/01/25 05:10:06;;;;;;;50.17;32.38;;;3.40;99.90;;;;;;4926684;29;20052;-74
2023/01/25 05:12:35;;;;;;;48.72;31.58;;;3.40;99.90;;;;;;4944434;29;20071;-77
2023/01/25 05:15:07;;;;;;;50.95;33.13;;;3.40;99.90;;;;;;4923700;29;20051;-75
2023/01/25 05:17:35;;;;;;;51.40;33.33;;;3.40;99.90;;;;;;4923958;29;20079;-77
2023/01/25 05:20:03;;;;;;;58.08;36.28;;;3.40;99.90;;;;;;4923512;29;20058;-76
2023/01/25 05:22:31;;;;;;;59.78;37.38;;;3.30;99.90;;;;;;4922641;29;20112;-75
2023/01/25 05:25:00;;;;;;;59.50;36.85;;;3.40;99.90;;;;;;4940328;29;20075;-77
2023/01/25 05:27:27;;;;;;;64.22;38.80;;;3.40;99.90;;;;;;4920468;29;20493;-76
2023/01/25 05:29:54;;;;;;;48.75;29.83;;;3.40;99.90;;;;;;4925060;29;20044;-77
2023/01/25 05:32:55;;;;;;;46.35;29.73;;;3.30;1.00;;;;;;4919883;29;20052;-76
2023/01/25 05:35:24;;;;;;;48.75;30.42;;;3.30;99.90;;;;;;4923947;29;20049;-76
2023/01/25 05:37:57;;;;;;;41.35;26.27;;;3.20;99.90;;;;;;4921349;29;20096;-78
2023/01/25 05:40:27;;;;;;;43.05;28.20;;;3.20;99.90;;;;;;4923874;29;20054;-75
2023/01/25 05:42:59;;;;;;;38.25;26.50;;;3.10;1.00;;;;;;4940546;29;20063;-78
2023/01/25 05:45:29;;;;;;;36.42;25.63;;;3.10;1.00;;;;;;4944010;29;20044;-76
2023/01/25 05:47:59;;;;;;;33.97;22.48;;;3.10;1.00;;;;;;4937288;29;20493;-73
2023/01/25 05:50:27;;;;;;;42.95;27.10;;;3.10;82.90;;;;;;4935480;29;20111;-75
2023/01/25 05:53:01;;;;;;;40.53;26.55;;;3.10;1.00;;;;;;4943603;29;20154;-80
2023/01/25 05:55:31;;;;;;;46.38;30.77;;;3.10;99.90;;;;;;4940799;29;20047;-77
2023/01/25 05:58:07;;;;;;;53.58;33.10;;;3.10;1.00;;;;;;4921194;29;20047;-78
2023/01/25 06:00:34;;;;;;;45.05;29.23;;;3.20;1.00;;;;;;4927334;29;20060;-78
2023/01/25 06:03:02;;;;;;;45.10;29.00;;;3.10;1.00;;;;;;4938141;29;20106;-78
2023/01/25 06:05:32;;;;;;;49.38;30.00;;;3.10;1.00;;;;;;4920714;29;20056;-77
2023/01/25 06:08:00;;;;;;;42.78;27.98;;;3.10;1.00;;;;;;4938029;29;20067;-76
2023/01/25 06:10:36;;;;;;;42.05;26.65;;;3.10;4.50;;;;;;4937235;28;20051;-77
2023/01/25 06:13:04;;;;;;;37.70;24.65;;;3.10;99.90;;;;;;4923449;29;20054;-78
2023/01/25 06:15:31;;;;;;;38.28;25.27;;;3.10;1.00;;;;;;4941651;29;20482;-75
2023/01/25 06:18:19;;;;;;;39.22;27.10;;;3.10;1.00;;;;;;4925799;29;20147;-77
2023/01/25 06:21:01;;;;;;;40.63;27.75;;;3.10;54.10;;;;;;4941137;29;20122;-77
2023/01/25 06:23:36;;;;;;;48.28;34.42;;;3.10;1.00;;;;;;4927780;29;20524;-77
2023/01/25 06:26:07;;;;;;;50.45;35.70;;;3.10;1.00;;;;;;4927899;29;20257;-75
2023/01/25 06:28:36;;;;;;;52.88;36.70;;;3.10;99.90;;;;;;4926964;29;20068;-75
2023/01/25 06:31:05;;;;;;;55.88;37.45;;;3.10;1.00;;;;;;4948439;29;20058;-76
2023/01/25 06:33:33;;;;;;;63.28;42.63;;;3.10;1.00;;;;;;4943204;29;20056;-76
2023/01/25 06:36:02;;;;;;;58.53;38.40;;;3.20;99.90;;;;;;4961691;29;20124;-79
2023/01/25 06:38:30;;;;;;;89.25;49.75;;;3.20;1.00;;;;;;4938494;29;20082;-75
2023/01/25 06:41:01;;;;;;;63.95;39.13;;;3.20;1.00;;;;;;4946418;29;20043;-79
2023/01/25 06:43:31;;;;;;;69.03;41.80;;;3.20;99.90;;;;;;4942090;29;20180;-74
2023/01/25 06:46:00;;;;;;;56.50;38.10;;;3.30;1.00;;;;;;4928488;29;20046;-77
2023/01/25 06:48:28;;;;;;;56.70;37.75;;;3.30;1.00;;;;;;4928369;29;20481;-78
2023/01/25 06:50:57;;;;;;;54.40;36.30;;;3.30;99.90;;;;;;4927733;29;20142;-75
2023/01/25 06:53:26;;;;;;;59.67;41.65;;;3.40;1.00;;;;;;4925508;29;20048;-76
2023/01/25 06:55:58;;;;;;;72.38;47.97;;;3.40;1.00;;;;;;4926466;29;20088;-76
2023/01/25 06:58:26;;;;;;;69.25;45.85;;;3.40;13.10;;;;;;4927338;29;20051;-75
2023/01/25 07:00:59;;;;;;;71.15;43.85;;;3.40;99.90;;;;;;4926772;29;20516;-76
2023/01/25 07:03:26;;;;;;;81.82;48.33;;;3.50;1.00;;;;;;4926190;29;20036;-75
2023/01/25 07:05:59;;;;;;;71.38;41.88;;;3.50;1.00;;;;;;4928892;29;20047;-78
2023/01/25 07:08:27;;;;;;;77.68;44.60;;;3.50;99.90;;;;;;4936667;29;20036;-76
2023/01/25 07:10:58;;;;;;;76.78;45.97;;;3.40;99.90;;;;;;4928033;29;20052;-77
2023/01/25 07:13:27;;;;;;;110.88;65.60;;;3.40;1.00;;;;;;4944469;28;20049;-77
2023/01/25 07:15:58;;;;;;;98.53;60.50;;;3.40;1.00;;;;;;4926667;29;20508;-78
2023/01/25 07:18:29;;;;;;;94.15;58.20;;;3.50;99.90;;;;;;4944105;29;20083;-80
2023/01/25 07:21:02;;;;;;;88.82;53.17;;;3.50;1.00;;;;;;4945593;29;20056;-78
2023/01/25 07:23:32;;;;;;;132.77;78.47;;;3.50;1.00;;;;;;4928753;29;20048;-79
2023/01/25 07:26:00;;;;;;;149.40;91.82;;;3.50;99.90;;;;;;4928132;29;20071;-77
2023/01/25 07:28:28;;;;;;;148.35;90.75;;;3.60;1.00;;;;;;4947573;29;20138;-78
2023/01/25 07:30:57;;;;;;;108.15;64.93;;;3.60;99.90;;;;;;4930868;29;20130;-78
2023/01/25 07:33:26;;;;;;;94.80;57.42;;;3.60;99.90;;;;;;4929259;29;20056;-80
2023/01/25 07:35:53;;;;;;;66.93;42.38;;;3.60;1.00;;;;;;4944499;28;20134;-77
2023/01/25 07:38:21;;;;;;;60.22;38.25;;;3.70;1.00;;;;;;4935651;29;20044;-77
2023/01/25 07:40:52;;;;;;;63.80;41.92;;;3.70;1.00;;;;;;4944857;29;20032;-79
2023/01/25 07:43:20;;;;;;;66.15;42.33;;;3.80;1.00;;;;;;4965747;28;20028;-79
2023/01/25 07:45:48;;;;;;;66.07;42.50;;;3.80;1.00;;;;;;4959762;28;20058;-80
2023/01/25 07:48:19;;;;;;;58.95;38.35;;;3.90;99.90;;;;;;4928056;29;20048;-78
2023/01/25 07:50:48;;;;;;;71.15;44.40;;;3.90;99.90;;;;;;4941394;29;20054;-78
2023/01/25 07:53:17;;;;;;;67.20;41.72;;;4.00;99.90;;;;;;4941732;28;20040;-78
2023/01/25 07:55:44;;;;;;;69.68;43.13;;;4.10;1.00;;;;;;4935434;29;20067;-79
2023/01/25 07:58:12;;;;;;;56.80;36.33;;;4.10;1.00;;;;;;4938964;28;20052;-78
2023/01/25 08:00:42;;;;;;;56.28;35.90;;;4.20;99.90;;;;;;4944016;29;20063;-78
2023/01/25 08:03:09;;;;;;;62.72;39.83;;;4.20;99.90;;;;;;4941288;29;20055;-77
2023/01/25 08:05:44;;;;;;;62.67;39.00;;;4.30;1.00;;;;;;4939671;29;20484;-77
2023/01/25 08:08:12;;;;;;;58.63;35.88;;;4.40;1.00;;;;;;4941763;29;20102;-77
2023/01/25 08:10:40;;;;;;;53.33;34.15;;;4.30;99.90;;;;;;4938469;29;20059;-77
2023/01/25 08:13:07;;;;;;;45.83;30.25;;;4.40;99.90;;;;;;4925809;29;20052;-79
2023/01/25 08:15:35;;;;;;;43.42;28.42;;;4.50;99.90;;;;;;4922378;29;20032;-77
2023/01/25 08:18:03;;;;;;;41.28;26.85;;;4.50;99.90;;;;;;4922611;29;20051;-78
2023/01/25 08:20:31;;;;;;;40.47;25.15;;;4.60;99.90;;;;;;4921737;29;20048;-78
2023/01/25 08:23:03;;;;;;;29.33;19.02;;;4.70;99.90;;;;;;4925846;29;20043;-77
2023/01/25 08:25:31;;;;;;;41.03;24.38;;;4.80;1.00;;;;;;4939589;29;20071;-78
2023/01/25 08:27:58;;;;;;;48.30;27.50;;;4.80;1.00;;;;;;4927760;29;20053;-78
2023/01/25 08:30:26;;;;;;;32.05;21.65;;;4.80;1.00;;;;;;4926990;29;20108;-78
2023/01/25 08:33:26;;;;;;;35.25;22.60;;;4.80;1.00;;;;;;4942126;29;20146;-79
2023/01/25 08:36:13;;;;;;;36.53;24.98;;;4.90;1.00;;;;;;4928190;29;20052;-81
2023/01/25 08:39:11;;;;;;;39.97;25.90;;;4.80;1.00;;;;;;4945415;28;20062;-81
2023/01/25 08:41:39;;;;;;;42.47;25.08;;;4.80;1.00;;;;;;4873303;29;20153;-75
2023/01/25 08:44:06;;;;;;;47.28;28.40;;;4.80;1.00;;;;;;4880653;29;20041;-79
2023/01/25 08:46:47;;;;;;;33.70;22.35;;;4.80;1.00;;;;;;4878745;29;20057;-79
2023/01/25 08:49:14;;;;;;;30.65;21.13;;;4.80;1.00;;;;;;4864360;29;20052;-75
2023/01/25 08:51:46;;;;;;;29.48;18.80;;;4.80;1.00;;;;;;4875129;29;20674;-74
2023/01/25 08:54:17;;;;;;;28.67;19.73;;;4.80;1.00;;;;;;4862483;29;20141;-75
2023/01/25 08:56:45;;;;;;;30.13;19.13;;;4.70;1.00;;;;;;4876193;29;20045;-73
2023/01/25 08:59:14;;;;;;;35.42;20.60;;;4.80;1.00;;;;;;4860692;29;20185;-77
2023/01/25 09:01:41;;;;;;;31.52;20.15;;;4.70;1.00;;;;;;4871052;29;20099;-78
2023/01/25 09:04:08;;;;;;;31.65;20.08;;;4.80;1.00;;;;;;4857347;29;20050;-76
2023/01/25 09:06:36;;;;;;;32.33;20.88;;;4.80;1.00;;;;;;4874009;29;20532;-76
2023/01/25 09:09:04;;;;;;;37.92;24.33;;;4.90;1.00;;;;;;4873822;29;20049;-78
2023/01/25 09:11:35;;;;;;;41.15;25.73;;;4.90;1.00;;;;;;4874635;29;20049;-76
2023/01/25 09:14:03;;;;;;;41.13;23.38;;;4.90;99.90;;;;;;4859639;29;20073;-78
2023/01/25 09:16:31;;;;;;;44.45;26.90;;;4.80;99.90;;;;;;4859344;29;20052;-79
2023/01/25 09:19:03;;;;;;;42.97;26.60;;;4.80;1.00;;;;;;4907483;29;20099;-76
2023/01/25 09:21:32;;;;;;;38.58;23.88;;;4.90;1.00;;;;;;4922203;29;20115;-76
2023/01/25 09:23:59;;;;;;;33.03;21.02;;;4.90;99.90;;;;;;4924419;29;20044;-79
2023/01/25 09:26:27;;;;;;;27.02;16.40;;;4.70;99.90;;;;;;4937017;29;20036;-77
2023/01/25 09:28:56;;;;;;;28.17;18.65;;;4.50;99.90;;;;;;4926402;29;20074;-79
2023/01/25 09:31:24;;;;;;;28.88;18.90;;;4.40;1.00;;;;;;4925955;29;20115;-79
2023/01/25 09:34:07;;;;;;;27.40;18.40;;;4.20;1.00;;;;;;4936547;29;20449;-76
2023/01/25 09:36:34;;;;;;;25.27;17.58;;;4.20;1.00;;;;;;4940182;29;20055;-76
2023/01/25 09:39:02;;;;;;;27.95;19.30;;;4.20;1.00;;;;;;4924131;29;20087;-76
2023/01/25 09:42:01;;;;;;;33.05;20.92;;;4.20;1.00;;;;;;4934554;29;20060;-75
2023/01/25 09:44:41;;;;;;;32.95;22.33;;;4.30;1.00;;;;;;4923146;29;20067;-77
2023/01/25 09:47:19;;;;;;;28.55;18.70;;;4.30;1.00;;;;;;4925867;29;20485;-77
2023/01/25 09:50:00;;;;;;;28.88;20.40;;;4.30;1.00;;;;;;4929189;29;20139;-79
2023/01/25 09:52:42;;;;;;;24.60;18.63;;;4.20;1.00;;;;;;4926185;29;20475;-79
2023/01/25 09:55:14;;;;;;;35.08;24.45;;;4.20;1.00;;;;;;4931036;29;20039;-78
2023/01/25 09:57:44;;;;;;;32.70;22.30;;;4.30;1.00;;;;;;4937021;29;20044;-81
2023/01/25 10:00:19;;;;;;;38.75;25.88;;;4.30;1.00;;;;;;4951664;29;20052;-82
2023/01/25 10:02:54;;;;;;;41.53;25.13;;;4.30;1.00;;;;;;4934297;29;20079;-80
2023/01/25 10:05:26;;;;;;;40.08;25.80;;;4.30;1.00;;;;;;4949694;29;20484;-78
2023/01/25 10:08:00;;;;;;;47.08;32.17;;;4.10;1.00;;;;;;4929631;29;20052;-80
2023/01/25 10:10:34;;;;;;;53.35;33.45;;;4.00;1.00;;;;;;4932694;29;20067;-80
2023/01/25 10:13:02;;;;;;;60.92;37.47;;;4.00;89.30;;;;;;4931091;29;20040;-80
2023/01/25 10:15:38;;;;;;;56.35;36.15;;;4.00;99.90;;;;;;4926831;29;20041;-80
2023/01/25 10:18:17;;;;;;;52.50;34.30;;;4.10;99.90;;;;;;4929494;29;20047;-78
2023/01/25 10:20:50;;;;;;;48.35;29.05;;;4.30;99.90;;;;;;4943162;29;20043;-77
2023/01/25 10:23:37;;;;;;;54.42;33.25;;;4.40;99.90;;;;;;4930683;29;20060;-79
2023/01/25 10:26:12;;;;;;;52.58;33.15;;;4.40;1.00;;;;;;4931205;29;20048;-77
2023/01/25 10:28:46;;;;;;;48.25;28.40;;;4.40;1.00;;;;;;4928041;29;20070;-79
2023/01/25 10:31:19;;;;;;;47.78;26.17;;;4.30;1.00;;;;;;4930886;29;20527;-80
2023/01/25 10:33:48;;;;;;;49.90;27.23;;;4.30;1.00;;;;;;4928315;29;20725;-80
2023/01/25 10:36:17;;;;;;;45.67;27.60;;;4.40;1.00;;;;;;4928406;29;20035;-79
2023/01/25 10:38:46;;;;;;;53.38;29.58;;;4.50;1.00;;;;;;4929760;29;20056;-78
2023/01/25 10:41:20;;;;;;;39.13;22.73;;;4.60;1.00;;;;;;4926228;29;20758;-79
2023/01/25 10:44:20;;;;;;;42.70;23.58;;;4.40;1.00;;;;;;4926430;29;20059;-78
2023/01/25 10:46:40;;;;;;;42.00;23.17;;;4.30;1.00;;;;;;4942251;29;20480;-79
2023/01/25 10:49:23;;;;;;;45.00;25.40;;;4.20;1.00;;;;;;4926841;29;20055;-79
2023/01/25 10:51:50;;;;;;;46.53;25.52;;;4.10;1.00;;;;;;4930001;29;20051;-79
2023/01/25 10:54:18;;;;;;;45.70;25.50;;;4.00;1.00;;;;;;4947616;29;20051;-79
2023/01/25 10:56:47;;;;;;;45.95;27.08;;;4.10;1.00;;;;;;4947730;29;20463;-80
2023/01/25 10:59:19;;;;;;;48.72;25.00;;;4.20;1.00;;;;;;4928607;29;20457;-80
2023/01/25 11:01:49;;;;;;;47.15;25.95;;;4.40;1.00;;;;;;4930913;29;20027;-80
2023/01/25 11:04:28;;;;;;;43.50;23.73;;;4.50;1.00;;;;;;4943524;29;20079;-79
2023/01/25 11:06:56;;;;;;;43.83;23.85;;;4.60;1.00;;;;;;4946832;29;20068;-79
2023/01/25 11:09:39;;;;;;;43.13;21.95;;;4.50;1.00;;;;;;4928500;29;20078;-79
2023/01/25 11:12:18;;;;;;;39.85;22.33;;;4.50;99.90;;;;;;4934771;29;20051;-79
2023/01/25 11:14:49;;;;;;;38.58;22.80;;;4.50;99.90;;;;;;4945588;29;20499;-78
2023/01/25 11:17:29;;;;;;;41.65;24.10;;;4.50;99.90;;;;;;4928042;29;20063;-78
2023/01/25 11:20:18;;;;;;;41.20;23.67;;;4.60;99.90;;;;;;4928288;29;20040;-79
2023/01/25 11:22:53;;;;;;;40.58;23.23;;;4.60;99.90;;;;;;4930547;29;20068;-79
2023/01/25 11:25:29;;;;;;;43.53;26.10;;;4.40;99.90;;;;;;4932447;29;20072;-80
2023/01/25 11:28:18;;;;;;;41.20;23.67;;;4.50;99.90;;;;;;4935932;29;20048;-79
2023/01/25 11:30:49;;;;;;;48.60;26.17;;;4.70;99.90;;;;;;4932540;29;20060;-79
2023/01/25 11:33:20;;;;;;;49.53;27.60;;;4.80;99.90;;;;;;4943904;29;20055;-79
2023/01/25 11:36:09;;;;;;;49.55;29.15;;;4.80;99.90;;;;;;4959159;28;20134;-81
2023/01/25 11:38:39;;;;;;;46.42;26.98;;;4.70;99.90;;;;;;4943175;29;20060;-79
2023/01/25 11:41:18;;;;;;;47.60;26.55;;;4.70;99.90;;;;;;4930722;29;20524;-79
2023/01/25 11:44:08;;;;;;;49.97;29.00;;;4.70;88.90;;;;;;4935435;29;20063;-79
2023/01/25 11:46:47;;;;;;;41.42;25.15;;;4.60;99.90;;;;;;4927094;29;20047;-81
2023/01/25 11:49:28;;;;;;;43.28;25.65;;;4.60;99.90;;;;;;4929427;29;20044;-81
2023/01/25 11:52:04;;;;;;;44.42;25.33;;;4.50;66.90;;;;;;4944941;29;20163;-80
2023/01/25 11:54:49;;;;;;;44.42;26.42;;;4.40;1.00;;;;;;4927862;29;20047;-79
2023/01/25 11:57:43;;;;;;;45.17;26.98;;;4.40;19.90;;;;;;4925397;29;20063;-80
2023/01/25 12:00:26;;;;;;;42.05;25.48;;;4.40;75.60;;;;;;4930231;29;20044;-80
2023/01/25 12:03:16;;;;;;;46.80;29.05;;;4.50;48.20;;;;;;4946614;29;20028;-80
2023/01/25 12:05:56;;;;;;;47.88;29.20;;;4.40;23.10;;;;;;4944694;29;20140;-80
2023/01/25 12:08:39;;;;;;;48.13;29.02;;;4.40;71.10;;;;;;4939378;29;20058;-80
2023/01/25 12:11:17;;;;;;;51.78;32.25;;;4.40;99.90;;;;;;4943044;29;20386;-78
2023/01/25 12:13:57;;;;;;;40.35;25.85;;;4.30;99.90;;;;;;4926271;29;20162;-81
2023/01/25 12:16:43;;;;;;;51.50;28.98;;;4.30;99.90;;;;;;4932328;29;20048;-79
2023/01/25 12:19:35;;;;;;;49.45;32.47;;;4.30;99.90;;;;;;4944950;29;20555;-81
2023/01/25 12:22:24;;;;;;;48.83;31.77;;;4.40;99.90;;;;;;4926263;29;20679;-81
2023/01/25 12:24:59;;;;;;;43.35;29.92;;;4.40;99.90;;;;;;4929900;29;20134;-79
2023/01/25 12:27:40;;;;;;;38.75;27.73;;;4.50;43.30;;;;;;4929114;29;20052;-78
2023/01/25 12:30:16;;;;;;;43.80;29.35;;;4.40;1.00;;;;;;4926609;29;20583;-79
2023/01/25 12:32:50;;;;;;;39.00;25.83;;;4.20;1.00;;;;;;4927574;29;20040;-81
2023/01/25 12:35:26;;;;;;;36.83;25.73;;;4.10;1.00;;;;;;4933538;29;20048;-79
2023/01/25 12:37:59;;;;;;;61.63;38.42;;;4.10;20.90;;;;;;4956256;29;20062;-79
2023/01/25 12:40:42;;;;;;;46.17;31.88;;;4.30;39.20;;;;;;4955075;29;20048;-78
2023/01/25 12:43:16;;;;;;;35.40;24.05;;;4.40;26.60;;;;;;4954967;29;20076;-80
2023/01/25 12:45:46;;;;;;;40.22;25.67;;;4.60;1.00;;;;;;4956281;28;20056;-80
2023/01/25 12:48:19;;;;;;;36.70;24.23;;;4.80;1.00;;;;;;4941641;29;20042;-80
2023/01/25 12:50:52;;;;;;;52.28;32.70;;;4.60;1.00;;;;;;4956834;29;20118;-79
2023/01/25 12:53:23;;;;;;;45.95;30.02;;;4.30;1.00;;;;;;4959446;29;20064;-81
2023/01/25 12:55:52;;;;;;;48.92;28.40;;;4.30;1.00;;;;;;4946581;29;20040;-81
2023/01/25 12:58:27;;;;;;;44.60;26.45;;;4.40;62.90;;;;;;4945179;29;20032;-80
2023/01/25 13:01:01;;;;;;;47.92;26.90;;;4.60;1.00;;;;;;4947064;29;20047;-81
2023/01/25 13:03:35;;;;;;;41.88;23.90;;;4.70;1.00;;;;;;4947885;29;20044;-81